Time;durP1;ratioP1;P1;durP2;ratioP2;P2;SDS_P1;SDS_P2;PMS_P1;PMS_P2;Temp;Humidity;BMP_temperature;BMP_pressure;BME280_temperature;BME280_humidity;BME280_pressure;Samples;Min_cycle;Max_cycle;Signal;HPM_P1;HPM_P2
2022/10/11 00:00:39;;;;;;;12.43;6.70;;;;;;;17.07;60.96;100503.50;5111364;28;20047;-36
2022/10/11 00:03:05;;;;;;;12.10;6.45;;;;;;;17.03;61.15;100505.03;5111044;28;20506;-36
2022/10/11 00:05:31;;;;;;;11.13;7.00;;;;;;;17.07;61.28;100513.47;5111205;28;20023;-36
2022/10/11 00:07:56;;;;;;;10.77;6.85;;;;;;;17.06;61.03;100504.56;5111079;28;20020;-36
2022/10/11 00:10:22;;;;;;;11.05;6.15;;;;;;;17.04;61.17;100498.63;5110915;28;20027;-36
2022/10/11 00:12:48;;;;;;;11.25;7.07;;;;;;;17.04;61.63;100500.47;5110986;28;20087;-37
2022/10/11 00:15:16;;;;;;;13.77;6.60;;;;;;;17.06;61.98;100501.03;5110825;28;20019;-37
2022/10/11 00:17:42;;;;;;;10.43;6.60;;;;;;;17.00;61.72;100498.25;5111137;28;20098;-37
2022/10/11 00:20:08;;;;;;;7.57;6.22;;;;;;;16.92;62.34;100501.22;5110924;28;20439;-37
2022/10/11 00:22:35;;;;;;;9.75;6.15;;;;;;;16.96;61.73;100502.44;5111477;28;20088;-37
2022/10/11 00:25:01;;;;;;;8.90;6.30;;;;;;;17.02;61.92;100502.56;5114768;28;20045;-37
2022/10/11 00:27:26;;;;;;;10.30;6.60;;;;;;;16.77;62.46;100509.69;5114925;28;20097;-37
2022/10/11 00:29:52;;;;;;;14.32;7.28;;;;;;;16.80;62.34;100511.09;5114796;28;20369;-37
2022/10/11 00:32:17;;;;;;;10.27;6.80;;;;;;;16.85;62.94;100510.41;5114652;28;20020;-37
2022/10/11 00:34:43;;;;;;;10.45;7.10;;;;;;;16.93;62.78;100507.44;5114627;28;20027;-37
2022/10/11 00:37:08;;;;;;;9.95;6.78;;;;;;;16.79;62.93;100486.06;5114457;28;20394;-37
2022/10/11 00:39:34;;;;;;;10.32;7.80;;;;;;;16.75;62.80;100484.91;5114425;28;20491;-37
2022/10/11 00:41:59;;;;;;;15.15;8.23;;;;;;;17.02;62.29;100486.41;5114663;28;20451;-37
2022/10/11 00:44:28;;;;;;;14.27;8.73;;;;;;;16.95;62.38;100481.97;5114469;28;20023;-37
2022/10/11 00:47:00;;;;;;;14.52;9.02;;;;;;;16.90;62.34;100481.00;5114947;28;20015;-37
2022/10/11 00:49:35;;;;;;;13.93;9.07;;;;;;;16.63;62.88;100481.31;5114271;28;20739;-37
2022/10/11 00:52:10;;;;;;;14.07;9.65;;;;;;;16.91;62.64;100482.66;5113859;28;20026;-37
2022/10/11 00:54:40;;;;;;;15.18;9.52;;;;;;;16.88;62.56;100483.09;5114415;28;20023;-37
2022/10/11 00:57:10;;;;;;;16.02;10.00;;;;;;;16.96;61.71;100480.09;5114667;27;20058;-37
2022/10/11 00:59:41;;;;;;;16.05;10.23;;;;;;;16.73;63.08;100472.72;5114027;28;20443;-37
2022/10/11 01:02:07;;;;;;;16.73;10.07;;;;;;;16.88;62.49;100466.97;5114158;28;20090;-37
2022/10/11 01:04:33;;;;;;;16.08;9.63;;;;;;;16.80;62.72;100463.50;5113701;28;20023;-37
2022/10/11 01:07:00;;;;;;;16.10;10.15;;;;;;;16.75;62.36;100467.94;5114097;28;20143;-37
2022/10/11 01:09:26;;;;;;;15.18;10.48;;;;;;;16.88;62.35;100469.66;5114312;28;20044;-37
2022/10/11 01:11:54;;;;;;;18.52;10.30;;;;;;;16.90;61.94;100470.25;5113747;28;20016;-37
2022/10/11 01:14:29;;;;;;;15.57;10.05;;;;;;;16.91;62.15;100471.91;5113601;28;20030;-38
2022/10/11 01:17:31;;;;;;;14.05;10.38;;;;;;;16.67;62.78;100469.06;5113530;28;20023;-37
2022/10/11 01:20:21;;;;;;;14.45;10.35;;;;;;;16.86;63.22;100469.06;5112530;28;20602;-37
2022/10/11 01:23:09;;;;;;;15.85;9.88;;;;;;;16.80;63.12;100460.81;5113452;28;20052;-37
2022/10/11 01:25:47;;;;;;;16.17;10.43;;;;;;;16.75;63.31;100466.09;5072076;28;20387;-38
2022/10/11 01:28:21;;;;;;;14.48;10.15;;;;;;;16.73;63.41;100473.53;5113709;28;20020;-37
2022/10/11 01:30:49;;;;;;;15.35;9.68;;;;;;;16.69;63.00;100466.97;5113699;28;20495;-37
2022/10/11 01:33:29;;;;;;;14.10;9.65;;;;;;;16.85;62.73;100456.66;5113629;28;20031;-37
2022/10/11 01:36:18;;;;;;;19.48;10.25;;;;;;;16.74;63.51;100461.75;5112956;27;20028;-37
2022/10/11 01:39:02;;;;;;;15.32;9.77;;;;;;;16.93;63.10;100453.69;5113504;28;20040;-37
2022/10/11 01:41:33;;;;;;;14.65;9.50;;;;;;;16.84;62.53;100446.97;5113422;28;20039;-37
2022/10/11 01:44:01;;;;;;;15.93;10.40;;;;;;;16.86;62.68;100444.88;5112992;28;20030;-37
2022/10/11 01:46:28;;;;;;;15.25;10.20;;;;;;;16.94;62.93;100444.56;5113618;28;20557;-37
2022/10/11 01:48:57;;;;;;;15.55;10.00;;;;;;;16.75;63.29;100435.69;5113217;28;20019;-37
2022/10/11 01:51:30;;;;;;;18.00;10.55;;;;;;;16.90;62.60;100444.19;5113798;28;20059;-37
2022/10/11 01:54:15;;;;;;;17.08;9.90;;;;;;;16.88;63.05;100450.84;5113375;28;20039;-37
2022/10/11 01:57:11;;;;;;;15.85;10.20;;;;;;;16.83;63.65;100440.78;5112401;28;20024;-37
2022/10/11 01:59:39;;;;;;;13.88;9.50;;;;;;;16.80;63.00;100439.31;5113073;28;20119;-37
2022/10/11 02:02:26;;;;;;;15.13;10.02;;;;;;;16.88;62.91;100438.22;5112896;28;20115;-37
2022/10/11 02:05:20;;;;;;;18.20;9.68;;;;;;;16.71;63.40;100439.88;5112839;28;20043;-37
2022/10/11 02:08:05;;;;;;;13.32;8.98;;;;;;;16.71;64.20;100440.69;5113008;28;20031;-37
2022/10/11 02:10:41;;;;;;;17.00;9.27;;;;;;;16.67;63.40;100438.69;5112806;28;20034;-37
2022/10/11 02:13:38;;;;;;;12.65;8.63;;;;;;;16.51;64.26;100440.13;5112923;28;20131;-37
2022/10/11 02:16:10;;;;;;;14.48;8.70;;;;;;;16.54;64.80;100434.28;5112530;28;20098;-37
2022/10/11 02:18:42;;;;;;;17.65;9.85;;;;;;;16.52;64.14;100441.75;5094779;28;20379;-37
2022/10/11 02:21:12;;;;;;;12.70;8.45;;;;;;;16.39;65.04;100437.38;5112275;28;20046;-36
2022/10/11 02:23:46;;;;;;;15.52;9.18;;;;;;;16.20;65.84;100441.91;5112460;28;20043;-37
2022/10/11 02:26:13;;;;;;;14.25;9.07;;;;;;;16.26;65.04;100446.41;5112805;28;20098;-37
2022/10/11 02:28:41;;;;;;;12.48;8.90;;;;;;;16.38;65.81;100449.16;5112654;28;20024;-37
2022/10/11 02:31:09;;;;;;;11.85;8.75;;;;;;;16.36;65.61;100449.38;5112329;28;20034;-37
2022/10/11 02:34:24;;;;;;;12.00;8.68;;;;;;;16.51;65.04;100443.63;5112247;28;20111;-37
2022/10/11 02:37:05;;;;;;;15.57;8.02;;;;;;;16.51;64.74;100440.94;5108051;28;20028;-37
2022/10/11 02:39:34;;;;;;;;;;;;;;;16.71;64.67;100439.88;5112306;28;20685;-37
2022/10/11 02:42:04;;;;;;;13.65;8.02;;;;;;;16.63;64.22;100438.31;5112035;28;19912;-37
2022/10/11 02:44:36;;;;;;;;;;;;;;;16.85;64.02;100438.69;5112624;28;20491;-37
2022/10/11 02:47:02;;;;;;;13.07;8.10;;;;;;;16.74;64.03;100437.56;5111356;28;19908;-37
2022/10/11 02:49:30;;;;;;;13.35;7.75;;;;;;;16.72;63.46;100442.34;5112325;28;20029;-37
2022/10/11 02:51:56;;;;;;;11.30;7.57;;;;;;;16.77;63.46;100442.47;5111876;28;20111;-37
2022/10/11 02:54:23;;;;;;;13.30;8.00;;;;;;;16.70;64.17;100438.25;5112276;28;20038;-37
2022/10/11 02:56:49;;;;;;;11.23;7.63;;;;;;;16.66;64.36;100431.66;5111696;28;20457;-37
2022/10/11 02:59:14;;;;;;;11.15;8.13;;;;;;;16.63;64.64;100435.63;5111797;28;20117;-36
2022/10/11 03:01:40;;;;;;;15.90;8.07;;;;;;;16.62;64.32;100428.63;5111914;27;20032;-37
2022/10/11 03:04:05;;;;;;;14.02;8.15;;;;;;;16.77;63.42;100431.75;5111730;28;20084;-38
2022/10/11 03:06:31;;;;;;;12.15;8.05;;;;;;;16.66;63.82;100431.66;5111659;28;20022;-36
2022/10/11 03:08:56;;;;;;;12.73;8.13;;;;;;;16.65;64.30;100430.84;5111617;28;20027;-36
2022/10/11 03:11:21;;;;;;;10.50;7.97;;;;;;;16.65;63.89;100430.03;5111784;28;20072;-37
2022/10/11 03:13:47;;;;;;;13.32;9.70;;;;;;;16.68;64.17;100426.88;5111902;28;20020;-36
2022/10/11 03:16:12;;;;;;;12.65;8.25;;;;;;;16.73;63.70;100432.41;5111467;28;20094;-36
2022/10/11 03:18:38;;;;;;;11.30;8.02;;;;;;;16.71;63.99;100432.63;5111781;28;20456;-36
2022/10/11 03:21:03;;;;;;;14.13;8.10;;;;;;;16.69;64.07;100436.59;5111005;28;20044;-35
2022/10/11 03:23:29;;;;;;;12.60;8.40;;;;;;;16.72;63.45;100426.22;5111439;28;20027;-37
2022/10/11 03:25:54;;;;;;;16.42;8.63;;;;;;;16.62;63.47;100428.63;5110964;28;20027;-36
2022/10/11 03:28:20;;;;;;;15.75;8.20;;;;;;;16.55;63.98;100427.88;5111235;28;20028;-36
2022/10/11 03:30:47;;;;;;;15.90;8.18;;;;;;;16.47;63.83;100420.97;5111269;28;20012;-36
2022/10/11 03:33:12;;;;;;;13.07;8.20;;;;;;;16.67;63.41;100423.38;5111496;28;20098;-37
2022/10/11 03:35:39;;;;;;;12.20;7.78;;;;;;;16.74;62.59;100428.69;5111148;28;20374;-36
2022/10/11 03:38:05;;;;;;;11.68;7.43;;;;;;;16.81;62.45;100426.69;5111430;28;20029;-37
2022/10/11 03:40:30;;;;;;;10.63;7.70;;;;;;;16.88;62.64;100419.41;5111166;28;20122;-37
2022/10/11 03:42:56;;;;;;;12.73;8.20;;;;;;;16.88;62.44;100426.66;5111437;28;20034;-36
2022/10/11 03:45:22;;;;;;;12.68;8.40;;;;;;;16.85;62.06;100419.88;5111918;28;20076;-36
2022/10/11 03:47:47;;;;;;;12.82;7.60;;;;;;;16.88;61.69;100418.59;5110917;28;20024;-37
2022/10/11 03:50:13;;;;;;;11.68;8.05;;;;;;;16.89;61.86;100425.63;5111493;28;20039;-36
2022/10/11 03:52:38;;;;;;;13.30;8.48;;;;;;;16.76;62.36;100426.59;5111063;28;20391;-36
2022/10/11 03:55:05;;;;;;;14.35;8.55;;;;;;;16.65;62.99;100424.66;5111103;28;20114;-36
2022/10/11 03:57:30;;;;;;;13.82;8.35;;;;;;;16.79;62.56;100418.88;5111575;28;20050;-37
2022/10/11 03:59:56;;;;;;;13.82;8.02;;;;;;;16.87;62.00;100420.47;5114510;28;20483;-37
2022/10/11 04:02:22;;;;;;;13.15;8.52;;;;;;;16.69;62.58;100415.09;5114083;28;20036;-35
2022/10/11 04:04:47;;;;;;;13.32;8.63;;;;;;;16.65;64.10;100411.22;5113912;28;20028;-37
2022/10/11 04:07:13;;;;;;;11.73;8.38;;;;;;;16.72;63.05;100407.41;5101010;28;20031;-37
2022/10/11 04:09:38;;;;;;;13.30;7.57;;;;;;;16.84;62.93;100414.72;5114805;28;20047;-35
2022/10/11 04:12:04;;;;;;;15.77;8.95;;;;;;;16.46;63.65;100397.00;5114789;28;20024;-35
2022/10/11 04:14:29;;;;;;;11.90;8.18;;;;;;;16.72;64.56;100409.28;5114752;28;20027;-43
2022/10/11 04:16:55;;;;;;;15.70;8.75;;;;;;;16.86;63.15;100409.94;5114669;28;20038;-35
2022/10/11 04:19:20;;;;;;;13.35;7.80;;;;;;;16.81;62.34;100413.25;5114616;28;20076;-35
2022/10/11 04:21:46;;;;;;;12.77;7.53;;;;;;;16.70;63.05;100408.69;5114571;28;20058;-36
2022/10/11 04:24:11;;;;;;;16.00;8.15;;;;;;;16.72;62.78;100409.28;5114484;28;20039;-36
2022/10/11 04:26:37;;;;;;;15.80;8.48;;;;;;;16.75;62.46;100393.53;5104866;28;20051;-36
2022/10/11 04:29:03;;;;;;;19.90;9.05;;;;;;;16.83;62.50;100405.00;5114398;28;20080;-36
2022/10/11 04:31:29;;;;;;;12.82;7.88;;;;;;;16.69;63.01;100401.66;5113570;28;20023;-36
2022/10/11 04:33:55;;;;;;;14.45;8.75;;;;;;;16.74;63.49;100407.19;5113434;28;20024;-36
2022/10/11 04:36:22;;;;;;;15.38;9.07;;;;;;;16.75;63.00;100409.66;5113888;27;20023;-36
2022/10/11 04:38:48;;;;;;;11.82;8.55;;;;;;;16.40;64.96;100406.78;5113388;28;20031;-36
2022/10/11 04:41:14;;;;;;;16.60;8.18;;;;;;;16.56;64.08;100416.94;5113225;28;20032;-36
2022/10/11 04:43:39;;;;;;;18.08;8.43;;;;;;;16.52;65.04;100414.91;5113693;28;20721;-37
2022/10/11 04:46:05;;;;;;;14.82;8.68;;;;;;;16.38;65.37;100409.69;5113088;28;20117;-35
2022/10/11 04:48:31;;;;;;;13.90;8.48;;;;;;;16.94;65.04;100414.97;5113229;28;20070;-37
2022/10/11 04:50:56;;;;;;;11.65;7.30;;;;;;;17.27;64.04;100413.66;5113383;28;20051;-36
2022/10/11 04:53:22;;;;;;;14.50;7.93;;;;;;;17.43;61.46;100418.34;5113015;28;20027;-37
2022/10/11 04:55:57;;;;;;;20.40;8.85;;;;;;;17.46;60.82;100415.22;5110589;28;20024;-36
2022/10/11 04:58:22;;;;;;;18.73;8.25;;;;;;;17.43;60.56;100412.97;5092408;28;20024;-36
2022/10/11 05:00:48;;;;;;;12.02;8.00;;;;;;;17.35;60.93;100419.53;5092317;28;20031;-36
2022/10/11 05:03:13;;;;;;;16.60;8.88;;;;;;;17.25;60.92;100416.59;5092416;28;20107;-36
2022/10/11 05:05:39;;;;;;;18.17;8.95;;;;;;;17.09;61.51;100417.25;5092079;28;20103;-36
2022/10/11 05:08:04;;;;;;;18.30;9.48;;;;;;;16.99;61.78;100431.25;5092878;28;20023;-36
2022/10/11 05:10:29;;;;;;;45.97;27.67;;;;;;;16.59;64.37;100424.50;5091252;28;20377;-36
2022/10/11 05:12:55;;;;;;;37.47;21.42;;;;;;;16.64;64.13;100429.22;5090912;28;20111;-36
2022/10/11 05:15:20;;;;;;;21.98;12.25;;;;;;;16.73;62.69;100430.53;5093473;28;20030;-37
2022/10/11 05:17:45;;;;;;;19.60;10.52;;;;;;;16.51;64.09;100424.03;5112044;28;20027;-36
2022/10/11 05:20:11;;;;;;;19.67;9.57;;;;;;;16.93;62.22;100429.47;5112250;28;20479;-36
2022/10/11 05:22:37;;;;;;;13.68;8.45;;;;;;;17.08;61.34;100418.31;5111989;28;20100;-36
2022/10/11 05:25:02;;;;;;;15.88;9.35;;;;;;;16.96;61.59;100410.19;5112047;28;20351;-36
2022/10/11 05:27:28;;;;;;;23.85;8.90;;;;;;;16.91;62.09;100418.94;5112338;28;20032;-35
2022/10/11 05:29:53;;;;;;;19.27;8.30;;;;;;;16.89;62.25;100415.69;5109517;28;20020;-36
2022/10/11 05:32:19;;;;;;;16.63;7.93;;;;;;;17.01;62.70;100407.63;5112562;28;20103;-36
2022/10/11 05:34:44;;;;;;;13.15;7.85;;;;;;;17.00;62.55;100401.44;5112508;28;20399;-36
2022/10/11 05:37:10;;;;;;;15.98;7.50;;;;;;;16.94;62.49;100404.22;5112569;28;20349;-36
2022/10/11 05:39:35;;;;;;;10.23;6.68;;;;;;;16.80;63.19;100415.13;5112105;28;20032;-36
2022/10/11 05:42:01;;;;;;;9.98;6.70;;;;;;;17.09;62.50;100414.56;5111937;28;20414;-36
2022/10/11 05:44:26;;;;;;;11.25;6.50;;;;;;;16.93;63.13;100410.66;5112042;28;20126;-36
2022/10/11 05:46:52;;;;;;;10.95;6.78;;;;;;;16.85;64.00;100417.19;5112643;28;20024;-37
2022/10/11 05:49:17;;;;;;;9.35;6.20;;;;;;;16.92;63.09;100423.25;5112144;28;20428;-36
2022/10/11 05:51:42;;;;;;;15.10;6.68;;;;;;;16.71;64.26;100413.81;5111987;28;20546;-37
2022/10/11 05:54:08;;;;;;;12.85;6.78;;;;;;;16.46;64.90;100429.25;5111490;28;20023;-37
2022/10/11 05:56:33;;;;;;;14.50;7.47;;;;;;;16.70;64.25;100431.00;5111742;28;20043;-36
2022/10/11 05:58:59;;;;;;;12.98;6.72;;;;;;;16.76;64.19;100432.78;5096564;28;20515;-36
2022/10/11 06:01:26;;;;;;;15.00;6.90;;;;;;;17.25;63.50;100438.09;5099969;28;20036;-36
2022/10/11 06:03:52;;;;;;;9.45;6.10;;;;;;;16.83;65.34;100442.63;5107855;28;20462;-36
2022/10/11 06:06:19;;;;;;;16.52;6.53;;;;;;;17.25;63.97;100440.81;5108783;28;20439;-36
2022/10/11 06:08:45;;;;;;;11.50;6.88;;;;;;;17.18;63.06;100438.19;5092368;28;20432;-36
2022/10/11 06:11:12;;;;;;;13.02;6.95;;;;;;;17.10;63.12;100448.47;5090384;28;20020;-36
2022/10/11 06:13:37;;;;;;;15.18;6.70;;;;;;;17.14;63.92;100450.47;5091146;28;20027;-36
2022/10/11 06:16:03;;;;;;;12.98;7.18;;;;;;;17.37;63.19;100438.94;5089888;28;20026;-36
2022/10/11 06:18:29;;;;;;;12.93;6.40;;;;;;;17.56;62.22;100446.94;5090309;28;20020;-36
2022/10/11 06:20:57;;;;;;;12.30;6.95;;;;;;;17.71;61.36;100438.41;5089411;28;20036;-35
2022/10/11 06:23:22;;;;;;;17.63;7.25;;;;;;;18.02;60.33;100449.88;5089675;28;20023;-36
2022/10/11 06:25:56;;;;;;;14.25;7.00;;;;;;;18.16;59.62;100446.72;5090213;28;20387;-36
2022/10/11 06:28:21;;;;;;;15.00;7.68;;;;;;;17.92;61.39;100445.91;5089958;28;20134;-36
2022/10/11 06:30:47;;;;;;;12.30;6.70;;;;;;;18.01;60.67;100449.09;5090163;28;20099;-36
2022/10/11 06:33:12;;;;;;;11.15;6.63;;;;;;;18.07;59.66;100448.13;5090221;28;20052;-36
2022/10/11 06:35:37;;;;;;;10.85;6.60;;;;;;;18.10;60.32;100452.22;5090332;28;20031;-36
2022/10/11 06:38:03;;;;;;;15.73;6.60;;;;;;;18.33;59.21;100448.66;5090156;28;20044;-37
2022/10/11 06:40:28;;;;;;;11.88;6.38;;;;;;;18.34;59.00;100461.91;5090422;28;20054;-37
2022/10/11 06:42:53;;;;;;;14.48;7.10;;;;;;;18.37;58.92;100452.50;5090509;28;20056;-37
2022/10/11 06:45:19;;;;;;;10.65;6.72;;;;;;;18.28;58.99;100459.34;5090405;28;20028;-37
2022/10/11 06:47:44;;;;;;;12.23;6.95;;;;;;;18.00;59.96;100454.69;5090949;28;20048;-36
2022/10/11 06:50:10;;;;;;;17.48;7.90;;;;;;;18.10;59.67;100461.09;5091048;28;20039;-36
2022/10/11 06:52:35;;;;;;;15.13;8.20;;;;;;;17.86;60.41;100462.16;5090935;28;20168;-36
2022/10/11 06:55:00;;;;;;;16.95;9.02;;;;;;;17.82;60.43;100463.66;5091123;28;20035;-36
2022/10/11 06:57:28;;;;;;;12.07;8.30;;;;;;;17.54;61.60;100463.31;5090848;28;20059;-37
2022/10/11 06:59:53;;;;;;;17.42;8.48;;;;;;;17.72;61.47;100456.97;5096153;28;20490;-37
2022/10/11 07:02:18;;;;;;;16.60;8.95;;;;;;;17.73;61.00;100455.94;5111024;28;20034;-37
2022/10/11 07:04:44;;;;;;;13.15;9.25;;;;;;;17.45;61.82;100456.63;5111229;28;20042;-37
2022/10/11 07:07:12;;;;;;;17.50;10.68;;;;;;;17.49;62.11;100451.59;5110827;28;20028;-37
2022/10/11 07:09:37;;;;;;;19.58;10.57;;;;;;;17.73;61.36;100453.25;5109734;28;20066;-37
2022/10/11 07:12:03;;;;;;;16.15;10.23;;;;;;;17.39;61.83;100446.78;5110560;28;20073;-37
2022/10/11 07:14:28;;;;;;;13.98;9.30;;;;;;;17.40;62.27;100445.72;5110577;28;20352;-36
2022/10/11 07:16:54;;;;;;;14.25;9.15;;;;;;;17.37;62.47;100454.25;5111250;28;20031;-37
2022/10/11 07:19:19;;;;;;;13.20;8.80;;;;;;;17.55;63.54;100448.81;5111318;28;20031;-37
2022/10/11 07:21:45;;;;;;;15.00;9.10;;;;;;;17.81;62.04;100452.09;5110661;28;20039;-37
2022/10/11 07:24:10;;;;;;;14.95;8.45;;;;;;;18.05;61.29;100458.31;5110453;28;20032;-37
2022/10/11 07:26:35;;;;;;;16.77;8.35;;;;;;;18.06;60.58;100446.47;5110092;28;20031;-37
2022/10/11 07:29:01;;;;;;;14.77;8.35;;;;;;;17.88;60.90;100450.13;5110388;28;20380;-38
2022/10/11 07:31:26;;;;;;;13.38;7.85;;;;;;;17.81;61.48;100441.31;5110528;28;20028;-37
2022/10/11 07:33:52;;;;;;;10.88;7.38;;;;;;;17.86;61.48;100440.63;5108267;28;20020;-37
2022/10/11 07:36:18;;;;;;;15.80;7.03;;;;;;;18.15;60.53;100444.25;5092179;28;20363;-37
2022/10/11 07:38:45;;;;;;;12.88;7.40;;;;;;;17.98;61.07;100446.84;5088703;28;20464;-36
2022/10/11 07:41:10;;;;;;;13.65;6.45;;;;;;;17.73;62.34;100447.88;5089198;28;20412;-37
2022/10/11 07:43:37;;;;;;;13.55;6.93;;;;;;;18.22;60.77;100447.66;5090076;28;20514;-38
2022/10/11 07:46:04;;;;;;;10.52;6.07;;;;;;;17.66;62.31;100452.53;5090089;28;20028;-37
2022/10/11 07:48:30;;;;;;;11.13;6.13;;;;;;;17.44;63.59;100446.06;5089874;28;20118;-37
2022/10/11 07:51:05;;;;;;;9.70;5.55;;;;;;;17.36;63.57;100455.31;5090252;28;20460;-37
2022/10/11 07:53:30;;;;;;;11.57;5.85;;;;;;;17.28;64.38;100450.25;5089747;28;20415;-38
2022/10/11 07:55:59;;;;;;;12.70;5.70;;;;;;;17.54;63.39;100449.03;5088176;28;20227;-37
2022/10/11 07:58:25;;;;;;;9.30;4.78;;;;;;;17.73;62.88;100445.19;5088672;28;20073;-35
2022/10/11 08:00:53;;;;;;;12.40;5.40;;;;;;;17.99;62.18;100440.38;5101667;28;20467;-36
2022/10/11 08:03:19;;;;;;;12.38;5.20;;;;;;;18.33;60.67;100440.56;5108828;28;20068;-36
2022/10/11 08:05:44;;;;;;;14.10;5.07;;;;;;;18.58;60.28;100434.88;5109179;28;20027;-36
2022/10/11 08:08:10;;;;;;;6.93;4.18;;;;;;;18.17;61.46;100440.25;5099482;28;20020;-36
2022/10/11 08:10:37;;;;;;;8.30;4.30;;;;;;;18.15;61.81;100439.69;5102859;28;20045;-36
2022/10/11 08:13:03;;;;;;;8.05;4.03;;;;;;;17.92;61.79;100437.84;5107616;28;20015;-36
2022/10/11 08:15:29;;;;;;;7.97;4.22;;;;;;;18.01;61.10;100435.63;5098409;28;20072;-36
2022/10/11 08:17:54;;;;;;;6.50;4.05;;;;;;;18.15;61.42;100446.94;5100046;28;20024;-36
2022/10/11 08:20:19;;;;;;;7.13;4.20;;;;;;;18.30;60.77;100438.38;5109484;28;20447;-36
2022/10/11 08:22:45;;;;;;;9.50;4.65;;;;;;;17.95;61.33;100442.75;5109626;28;20039;-35
2022/10/11 08:25:10;;;;;;;8.93;4.60;;;;;;;18.37;60.68;100444.44;5110198;28;20104;-36
2022/10/11 08:27:36;;;;;;;10.32;4.43;;;;;;;18.89;58.92;100435.53;5110098;28;20433;-35
2022/10/11 08:30:01;;;;;;;9.15;4.35;;;;;;;19.02;58.42;100429.81;5109661;28;20023;-36
2022/10/11 08:32:28;;;;;;;8.45;4.28;;;;;;;19.27;58.12;100434.84;5109648;28;20019;-36
2022/10/11 08:34:53;;;;;;;10.07;4.38;;;;;;;18.62;59.73;100438.75;5109446;28;20012;-36
2022/10/11 08:37:19;;;;;;;8.07;4.38;;;;;;;18.12;61.41;100437.44;5109120;28;20030;-36
2022/10/11 08:39:44;;;;;;;9.57;4.80;;;;;;;17.78;62.32;100439.09;5109760;28;20020;-36
2022/10/11 08:42:18;;;;;;;9.57;5.00;;;;;;;18.30;61.03;100436.50;5109256;28;20442;-37
2022/10/11 08:44:50;;;;;;;11.82;5.00;;;;;;;18.70;59.72;100441.06;5108682;28;20028;-36
2022/10/11 08:47:26;;;;;;;7.47;5.20;;;;;;;18.94;59.20;100449.06;5109062;28;20016;-36
2022/10/11 08:49:51;;;;;;;8.18;4.72;;;;;;;18.58;59.75;100426.78;5112232;28;20038;-36
2022/10/11 08:52:21;;;;;;;11.13;5.35;;;;;;;19.29;57.49;100429.19;5112662;28;20020;-36
2022/10/11 08:54:55;;;;;;;11.57;5.13;;;;;;;19.44;57.61;100431.31;5113056;28;20046;-36
2022/10/11 08:57:25;;;;;;;10.38;5.03;;;;;;;19.72;56.71;100428.56;5111238;28;20026;-36
2022/10/11 09:00:05;;;;;;;9.50;5.35;;;;;;;19.84;56.05;100423.06;5113010;28;20031;-36
2022/10/11 09:02:34;;;;;;;10.68;5.30;;;;;;;20.25;54.62;100426.28;5112693;28;20020;-36
2022/10/11 09:05:00;;;;;;;8.45;4.82;;;;;;;20.16;54.63;100427.78;5112594;28;20027;-37
2022/10/11 09:07:26;;;;;;;8.52;5.40;;;;;;;20.08;54.89;100433.63;5112359;28;20019;-36
2022/10/11 09:09:54;;;;;;;7.60;5.22;;;;;;;19.62;56.11;100428.38;5113178;28;20130;-37
2022/10/11 09:12:57;;;;;;;14.63;6.40;;;;;;;19.95;55.37;100423.19;5110540;28;20038;-36
2022/10/11 09:15:45;;;;;;;9.10;5.85;;;;;;;19.92;55.65;100429.91;5110538;28;20793;-36
2022/10/11 09:18:26;;;;;;;10.90;6.03;;;;;;;20.25;54.57;100420.88;5103562;28;20123;-36
2022/10/11 09:21:07;;;;;;;16.23;6.00;;;;;;;20.39;56.20;100421.34;5112376;28;20034;-37
2022/10/11 09:24:16;;;;;;;13.05;5.85;;;;;;;20.16;54.82;100419.69;5112813;28;20103;-36
2022/10/11 09:26:50;;;;;;;10.07;6.47;;;;;;;20.68;53.57;100421.97;5082477;28;20040;-36
2022/10/11 09:29:26;;;;;;;11.20;6.53;;;;;;;20.54;53.66;100414.47;5112479;28;20024;-37
2022/10/11 09:31:53;;;;;;;9.60;7.00;;;;;;;20.47;53.69;100411.97;5112698;28;20384;-36
2022/10/11 09:34:22;;;;;;;10.68;7.03;;;;;;;20.91;52.24;100419.22;5112611;28;20032;-36
2022/10/11 09:36:59;;;;;;;9.13;6.78;;;;;;;20.96;52.49;100417.41;5112675;28;20030;-36
2022/10/11 09:39:34;;;;;;;11.95;7.20;;;;;;;21.42;51.21;100411.56;5112681;28;20043;-36
2022/10/11 09:42:08;;;;;;;9.65;6.68;;;;;;;21.84;50.41;100410.78;5111284;28;20412;-36
2022/10/11 09:44:45;;;;;;;10.65;7.00;;;;;;;22.06;50.04;100406.00;5110939;28;20031;-36
2022/10/11 09:47:15;;;;;;;9.13;6.93;;;;;;;21.97;49.91;100413.03;5110907;28;20022;-35
2022/10/11 09:49:47;;;;;;;8.73;6.28;;;;;;;22.33;49.17;100413.22;5111455;28;20471;-37
2022/10/11 09:52:21;;;;;;;9.25;6.32;;;;;;;22.17;48.95;100412.28;5111588;28;20030;-37
2022/10/11 09:54:50;;;;;;;9.88;6.65;;;;;;;22.35;49.01;100399.38;5111571;28;20088;-35
2022/10/11 09:57:42;;;;;;;12.20;7.40;;;;;;;22.37;49.34;100397.22;5110881;28;20063;-36
2022/10/11 10:00:26;;;;;;;16.23;7.88;;;;;;;22.37;48.69;100392.63;5106217;28;20490;-36
2022/10/11 10:02:57;;;;;;;13.32;7.43;;;;;;;22.55;48.54;100393.22;5110514;28;20539;-36
2022/10/11 10:05:26;;;;;;;10.15;7.82;;;;;;;22.56;47.34;100389.41;5111677;28;20043;-36
2022/10/11 10:08:09;;;;;;;11.18;7.57;;;;;;;22.24;48.22;100385.75;5111538;28;20035;-37
2022/10/11 10:10:39;;;;;;;13.10;7.55;;;;;;;22.75;47.32;100371.56;5111430;28;20493;-37
2022/10/11 10:13:05;;;;;;;;;;;;;;;22.50;47.71;100364.16;5111531;28;20024;-37
2022/10/11 10:15:36;;;;;;;11.55;8.20;;;;;;;21.67;49.02;100371.13;5111542;28;19998;-36
2022/10/11 10:18:05;;;;;;;12.23;8.02;;;;;;;22.15;48.52;100365.66;5111569;28;20028;-36
2022/10/11 10:20:34;;;;;;;16.08;8.80;;;;;;;22.73;47.48;100365.59;5111303;28;20028;-36
2022/10/11 10:23:16;;;;;;;18.45;8.77;;;;;;;22.69;46.98;100356.34;5111605;28;20064;-36
2022/10/11 10:25:49;;;;;;;13.95;9.00;;;;;;;23.05;45.46;100361.03;5111500;28;20059;-36
2022/10/11 10:28:24;;;;;;;12.80;8.82;;;;;;;23.38;44.86;100359.63;5111417;28;20031;-36
2022/10/11 10:30:58;;;;;;;13.85;9.00;;;;;;;23.56;45.22;100358.25;5110879;28;20401;-39
2022/10/11 10:33:32;;;;;;;13.45;9.00;;;;;;;22.98;44.35;100362.09;5110634;28;20032;-36
2022/10/11 10:36:18;;;;;;;11.98;8.90;;;;;;;23.40;44.23;100355.56;5110935;28;20536;-37
2022/10/11 10:39:00;;;;;;;13.60;8.80;;;;;;;23.54;43.99;100347.66;5111201;28;20033;-37
2022/10/11 10:41:25;;;;;;;14.57;9.57;;;;;;;23.56;43.40;100339.22;5111202;28;20036;-37
2022/10/11 10:43:55;;;;;;;11.85;8.95;;;;;;;23.09;44.40;100338.47;5110965;28;20099;-37
2022/10/11 10:46:42;;;;;;;13.77;8.57;;;;;;;23.18;44.42;100338.75;5111381;28;20034;-36
2022/10/11 10:49:26;;;;;;;13.48;8.95;;;;;;;23.59;44.30;100335.97;5110776;28;20036;-36
2022/10/11 10:52:09;;;;;;;14.73;9.10;;;;;;;23.19;44.62;100334.97;5110650;28;20122;-37
2022/10/11 10:55:12;;;;;;;11.90;8.93;;;;;;;23.58;43.86;100339.78;5110782;28;20475;-36
2022/10/11 10:57:44;;;;;;;11.77;9.07;;;;;;;23.51;43.94;100331.09;5110868;28;20041;-36
2022/10/11 11:00:16;;;;;;;10.98;8.90;;;;;;;23.48;43.87;100342.53;5110741;28;20031;-37
2022/10/11 11:03:00;;;;;;;13.75;9.70;;;;;;;23.58;44.07;100337.06;5110955;28;20035;-36
2022/10/11 11:05:47;;;;;;;16.42;9.82;;;;;;;23.83;42.86;100340.81;5111359;28;20055;-36
2022/10/11 11:08:21;;;;;;;13.43;10.02;;;;;;;23.73;42.85;100330.78;5110012;28;20508;-37
2022/10/11 11:10:57;;;;;;;12.65;9.98;;;;;;;23.78;43.19;100328.03;5111365;28;20084;-37
2022/10/11 11:13:36;;;;;;;13.50;10.07;;;;;;;23.95;42.70;100316.84;5110645;28;20062;-37
2022/10/11 11:16:29;;;;;;;12.75;9.85;;;;;;;24.07;42.00;100322.78;5111046;28;20031;-39
2022/10/11 11:18:57;;;;;;;13.90;10.50;;;;;;;23.76;42.13;100313.91;5111016;28;20024;-37
2022/10/11 11:21:45;;;;;;;12.27;10.50;;;;;;;23.26;43.65;100310.25;5110898;28;20412;-38
2022/10/11 11:24:31;;;;;;;17.38;10.93;;;;;;;23.42;43.36;100298.28;5110761;28;20055;-37
2022/10/11 11:27:05;;;;;;;12.43;10.75;;;;;;;23.22;43.38;100290.97;5110554;28;20079;-37
2022/10/11 11:29:49;;;;;;;17.27;11.32;;;;;;;23.64;42.75;100289.75;5110774;28;20030;-36